Time;durP1;ratioP1;P1;durP2;ratioP2;P2;SDS_P1;SDS_P2;PMS_P1;PMS_P2;Temp;Humidity;BMP_temperature;BMP_pressure;BME280_temperature;BME280_humidity;BME280_pressure;Samples;Min_cycle;Max_cycle;Signal;HPM_P1;HPM_P2
2021/01/16 00:00:08;;;;;;;21.33;12.35;;;;;;;;;;6207526;28;20054;-67
2021/01/16 00:03:10;;;;;;;25.98;12.15;;;;;;;;;;6210418;28;20409;-68
2021/01/16 00:06:14;;;;;;;24.70;12.52;;;;;;;;;;6203346;28;20145;-67
2021/01/16 00:09:15;;;;;;;20.33;11.47;;;;;;;;;;6198309;28;20636;-67
2021/01/16 00:12:17;;;;;;;19.50;11.18;;;;;;;;;;6207772;28;20053;-68
2021/01/16 00:15:18;;;;;;;21.85;11.32;;;;;;;;;;6205066;28;20049;-67
2021/01/16 00:18:20;;;;;;;18.73;10.90;;;;;;;;;;6209723;28;20085;-67
2021/01/16 00:21:22;;;;;;;20.20;10.27;;;;;;;;;;6206191;28;20181;-69
2021/01/16 00:24:23;;;;;;;18.92;11.25;;;;;;;;;;6210697;28;20073;-68
2021/01/16 00:27:24;;;;;;;21.73;10.82;;;;;;;;;;6203997;28;20053;-70
2021/01/16 00:30:28;;;;;;;151.73;74.43;;;;;;;;;;6209837;28;20053;-70
2021/01/16 00:33:31;;;;;;;145.68;57.22;;;;;;;;;;6210749;28;20038;-69
2021/01/16 00:36:33;;;;;;;83.85;37.00;;;;;;;;;;6206296;28;20099;-69
2021/01/16 00:39:34;;;;;;;58.80;28.92;;;;;;;;;;6210208;28;20058;-68
2021/01/16 00:42:38;;;;;;;93.85;35.25;;;;;;;;;;6211853;28;20050;-68
2021/01/16 00:45:40;;;;;;;124.00;52.22;;;;;;;;;;6209917;28;20065;-69
2021/01/16 00:48:42;;;;;;;71.15;33.03;;;;;;;;;;6209476;28;20055;-69
2021/01/16 00:51:46;;;;;;;25.23;11.88;;;;;;;;;;6210987;28;20108;-69
2021/01/16 00:54:49;;;;;;;19.85;10.43;;;;;;;;;;6211233;28;20057;-68
2021/01/16 00:57:50;;;;;;;17.85;10.38;;;;;;;;;;6209856;28;20529;-69
2021/01/16 01:00:51;;;;;;;19.27;10.50;;;;;;;;;;6210738;28;20665;-68
2021/01/16 01:03:52;;;;;;;21.95;10.43;;;;;;;;;;6211091;28;20056;-69
2021/01/16 01:06:54;;;;;;;19.77;10.07;;;;;;;;;;6210249;28;20049;-69
2021/01/16 01:09:55;;;;;;;22.08;10.95;;;;;;;;;;6209251;28;20050;-69
2021/01/16 01:12:56;;;;;;;16.77;9.80;;;;;;;;;;6211435;28;20045;-68
2021/01/16 01:15:57;;;;;;;16.85;9.60;;;;;;;;;;6212551;28;20079;-69
2021/01/16 01:18:59;;;;;;;16.30;10.10;;;;;;;;;;6216034;28;20050;-69
2021/01/16 01:22:01;;;;;;;16.42;10.00;;;;;;;;;;6213544;28;20046;-66
2021/01/16 01:25:03;;;;;;;17.17;10.63;;;;;;;;;;6213136;28;20092;-70
2021/01/16 01:28:04;;;;;;;17.10;9.82;;;;;;;;;;6213191;28;20392;-70
2021/01/16 01:31:05;;;;;;;16.40;9.40;;;;;;;;;;6215543;28;20050;-66
2021/01/16 01:34:07;;;;;;;16.13;9.35;;;;;;;;;;6215546;28;20042;-68
2021/01/16 01:37:08;;;;;;;17.38;9.82;;;;;;;;;;6216146;28;20045;-66
2021/01/16 01:40:11;;;;;;;17.77;8.95;;;;;;;;;;6216512;28;20050;-66
2021/01/16 01:43:13;;;;;;;17.98;9.73;;;;;;;;;;6213172;28;20518;-66
2021/01/16 01:46:15;;;;;;;17.20;9.18;;;;;;;;;;6218228;28;20068;-67
2021/01/16 01:49:16;;;;;;;17.45;9.15;;;;;;;;;;6214214;28;20045;-66
2021/01/16 01:52:19;;;;;;;19.98;9.75;;;;;;;;;;6217078;28;20128;-68
2021/01/16 01:55:20;;;;;;;22.60;9.63;;;;;;;;;;6217891;28;20487;-67
2021/01/16 01:58:24;;;;;;;15.02;9.10;;;;;;;;;;6218117;28;20160;-69
2021/01/16 02:01:28;;;;;;;14.77;7.23;;;;;;;;;;6214563;28;20726;-67
2021/01/16 02:04:30;;;;;;;16.70;9.20;;;;;;;;;;6214976;28;20041;-68
2021/01/16 02:07:37;;;;;;;24.05;9.63;;;;;;;;;;6216416;28;20088;-70
2021/01/16 02:10:41;;;;;;;17.55;9.50;;;;;;;;;;6212868;28;20467;-67
2021/01/16 02:13:42;;;;;;;17.42;9.43;;;;;;;;;;6214419;28;20504;-68
2021/01/16 02:16:46;;;;;;;14.27;8.77;;;;;;;;;;6213120;28;20064;-68
2021/01/16 02:20:04;;;;;;;17.05;9.27;;;;;;;;;;6214694;28;20075;-68
2021/01/16 02:23:31;;;;;;;16.73;9.05;;;;;;;;;;6214602;28;20080;-68
2021/01/16 02:27:00;;;;;;;19.92;8.68;;;;;;;;;;6215152;28;20042;-68
2021/01/16 02:30:03;;;;;;;18.40;9.63;;;;;;;;;;6213105;28;20037;-69
2021/01/16 02:33:06;;;;;;;17.23;9.07;;;;;;;;;;6215634;28;20121;-68
2021/01/16 02:36:12;;;;;;;14.45;8.70;;;;;;;;;;6215323;28;20050;-67
2021/01/16 02:39:18;;;;;;;16.25;9.57;;;;;;;;;;6212226;28;20074;-68
2021/01/16 02:42:27;;;;;;;17.60;8.88;;;;;;;;;;6203560;28;20054;-70
2021/01/16 02:45:32;;;;;;;16.98;9.38;;;;;;;;;;6203487;28;20100;-70
2021/01/16 02:48:44;;;;;;;18.80;8.40;;;;;;;;;;6210703;28;20064;-68
2021/01/16 02:51:55;;;;;;;14.65;9.38;;;;;;;;;;6206545;28;20046;-69
2021/01/16 02:54:57;;;;;;;14.65;8.70;;;;;;;;;;6210806;28;20432;-68
2021/01/16 02:57:58;;;;;;;18.23;9.18;;;;;;;;;;6214704;28;20103;-69
2021/01/16 03:01:00;;;;;;;16.25;8.27;;;;;;;;;;6212664;28;20442;-69
2021/01/16 03:04:02;;;;;;;12.50;8.45;;;;;;;;;;6216195;28;20038;-68
2021/01/16 03:07:04;;;;;;;14.45;8.60;;;;;;;;;;6214809;28;20046;-68
2021/01/16 03:10:07;;;;;;;16.52;9.45;;;;;;;;;;6215609;28;20129;-71
2021/01/16 03:13:09;;;;;;;12.88;7.75;;;;;;;;;;6214722;28;20137;-67
2021/01/16 03:16:13;;;;;;;14.85;8.93;;;;;;;;;;6214794;28;20128;-67
2021/01/16 03:19:18;;;;;;;17.55;8.43;;;;;;;;;;6214082;28;20050;-67
2021/01/16 03:22:21;;;;;;;13.35;8.65;;;;;;;;;;6213285;28;20048;-67
2021/01/16 03:25:24;;;;;;;16.42;8.40;;;;;;;;;;6213621;28;20092;-68
2021/01/16 03:28:25;;;;;;;15.05;7.85;;;;;;;;;;6213490;28;20049;-70
2021/01/16 03:31:26;;;;;;;15.73;7.63;;;;;;;;;;6214338;28;20116;-68
2021/01/16 03:34:27;;;;;;;14.63;8.15;;;;;;;;;;6214899;28;20447;-67
2021/01/16 03:37:28;;;;;;;17.73;8.10;;;;;;;;;;6213617;28;20050;-67
2021/01/16 03:40:29;;;;;;;16.95;8.95;;;;;;;;;;6211881;28;20088;-68
2021/01/16 03:43:30;;;;;;;13.52;7.63;;;;;;;;;;6214706;28;20079;-69
2021/01/16 03:46:32;;;;;;;17.95;8.90;;;;;;;;;;6212120;28;20084;-68
2021/01/16 03:49:34;;;;;;;15.32;8.88;;;;;;;;;;6214735;28;20049;-71
2021/01/16 03:52:35;;;;;;;15.98;8.63;;;;;;;;;;6210405;28;20042;-68
2021/01/16 03:55:36;;;;;;;17.50;8.40;;;;;;;;;;6212532;28;20041;-68
2021/01/16 03:58:37;;;;;;;17.05;9.55;;;;;;;;;;6212412;28;20673;-68
2021/01/16 04:01:40;;;;;;;15.13;8.90;;;;;;;;;;6212099;28;20070;-68
2021/01/16 04:04:41;;;;;;;18.38;9.60;;;;;;;;;;6213065;28;20260;-68
2021/01/16 04:07:42;;;;;;;20.67;8.90;;;;;;;;;;6209186;28;20061;-69
2021/01/16 04:10:43;;;;;;;15.50;8.80;;;;;;;;;;6213427;28;20068;-68
2021/01/16 04:13:44;;;;;;;16.73;8.73;;;;;;;;;;6212703;28;20052;-68
2021/01/16 04:16:46;;;;;;;13.40;8.45;;;;;;;;;;6213632;28;20509;-69
2021/01/16 04:19:47;;;;;;;14.80;8.45;;;;;;;;;;6211796;28;20046;-68
2021/01/16 04:22:50;;;;;;;15.90;9.02;;;;;;;;;;6215314;28;20037;-68
2021/01/16 04:25:51;;;;;;;19.20;9.05;;;;;;;;;;6201630;28;20045;-68
2021/01/16 04:28:52;;;;;;;18.88;9.30;;;;;;;;;;6207242;28;20058;-68
2021/01/16 04:31:54;;;;;;;16.63;8.63;;;;;;;;;;6209291;28;20743;-70
2021/01/16 04:34:55;;;;;;;17.58;9.55;;;;;;;;;;6210800;28;20488;-68
2021/01/16 04:37:56;;;;;;;15.05;8.63;;;;;;;;;;6211616;28;20049;-68
2021/01/16 04:40:57;;;;;;;17.05;9.18;;;;;;;;;;6206376;28;20404;-68
2021/01/16 04:43:58;;;;;;;15.65;9.13;;;;;;;;;;6211068;28;20061;-68
2021/01/16 04:47:02;;;;;;;18.63;9.15;;;;;;;;;;6213712;28;20091;-68
2021/01/16 04:50:04;;;;;;;18.88;9.60;;;;;;;;;;6209395;28;20045;-71
2021/01/16 04:53:08;;;;;;;16.10;9.68;;;;;;;;;;6209324;28;20068;-68
2021/01/16 04:56:10;;;;;;;16.15;9.25;;;;;;;;;;6203763;28;20596;-68
2021/01/16 04:59:11;;;;;;;16.42;9.05;;;;;;;;;;6206551;28;20542;-69
2021/01/16 05:02:14;;;;;;;20.27;9.35;;;;;;;;;;6209025;28;20052;-68
2021/01/16 05:05:16;;;;;;;22.02;9.95;;;;;;;;;;6206496;28;20052;-68
2021/01/16 05:08:19;;;;;;;19.45;9.52;;;;;;;;;;6206019;28;20048;-68
2021/01/16 05:11:33;;;;;;;17.70;9.52;;;;;;;;;;6207331;28;20520;-68
2021/01/16 05:14:43;;;;;;;18.00;9.85;;;;;;;;;;6209380;28;20046;-71
2021/01/16 05:17:49;;;;;;;17.10;9.10;;;;;;;;;;6210482;28;20057;-68
2021/01/16 05:20:50;;;;;;;16.67;9.63;;;;;;;;;;6209170;28;20049;-69
2021/01/16 05:23:52;;;;;;;14.88;9.10;;;;;;;;;;6207100;28;20053;-68
2021/01/16 05:27:01;;;;;;;20.58;9.90;;;;;;;;;;6216343;28;20062;-68
2021/01/16 05:30:04;;;;;;;17.52;9.73;;;;;;;;;;6210829;28;20065;-67
2021/01/16 05:33:09;;;;;;;18.23;8.98;;;;;;;;;;6218275;28;20056;-71
2021/01/16 05:36:10;;;;;;;15.82;9.63;;;;;;;;;;6216632;28;20137;-68
2021/01/16 05:39:12;;;;;;;16.67;9.25;;;;;;;;;;6217352;28;20091;-68
2021/01/16 05:42:13;;;;;;;19.10;9.73;;;;;;;;;;6207742;28;20486;-68
2021/01/16 05:45:16;;;;;;;19.02;9.38;;;;;;;;;;6209893;28;20069;-68
2021/01/16 05:48:18;;;;;;;18.08;9.52;;;;;;;;;;6209461;28;20512;-69
2021/01/16 05:51:20;;;;;;;16.48;9.45;;;;;;;;;;6210977;28;20068;-68
2021/01/16 05:54:21;;;;;;;15.98;8.88;;;;;;;;;;6213486;28;20046;-68
2021/01/16 05:57:23;;;;;;;17.80;9.68;;;;;;;;;;6212995;28;20160;-69
2021/01/16 06:00:25;;;;;;;17.95;9.18;;;;;;;;;;6216861;28;20048;-69
2021/01/16 06:03:27;;;;;;;16.10;9.85;;;;;;;;;;6210514;28;20464;-68
2021/01/16 06:06:33;;;;;;;14.65;9.23;;;;;;;;;;6209849;28;20050;-68
2021/01/16 06:09:35;;;;;;;18.77;9.35;;;;;;;;;;6208227;28;20038;-68
2021/01/16 06:12:36;;;;;;;17.73;9.30;;;;;;;;;;6211313;28;20478;-67
2021/01/16 06:15:43;;;;;;;17.23;9.80;;;;;;;;;;6203626;28;20042;-68
2021/01/16 06:18:47;;;;;;;16.70;10.38;;;;;;;;;;6216429;28;20091;-67
2021/01/16 06:21:48;;;;;;;;;;;;;;;;;;6211141;28;20181;-68
2021/01/16 06:24:50;;;;;;;19.42;10.68;;;;;;;;;;6216333;28;20472;-68
2021/01/16 06:27:51;;;;;;;15.73;9.45;;;;;;;;;;6213333;28;20129;-68
2021/01/16 06:30:54;;;;;;;18.48;11.05;;;;;;;;;;6208448;28;20485;-68
2021/01/16 06:33:58;;;;;;;16.52;10.43;;;;;;;;;;6209980;28;20091;-68
2021/01/16 06:37:05;;;;;;;19.20;10.07;;;;;;;;;;6210663;28;20107;-69
2021/01/16 06:40:07;;;;;;;17.52;10.43;;;;;;;;;;6209720;28;20374;-69
2021/01/16 06:43:16;;;;;;;18.67;10.40;;;;;;;;;;6216077;28;20129;-69
2021/01/16 06:46:17;;;;;;;21.42;10.70;;;;;;;;;;6205049;28;20136;-69
2021/01/16 06:49:19;;;;;;;20.60;10.45;;;;;;;;;;6207797;28;20053;-68
2021/01/16 06:52:31;;;;;;;22.45;11.07;;;;;;;;;;6206778;28;20401;-69
2021/01/16 06:55:32;;;;;;;21.10;10.23;;;;;;;;;;6208891;28;20904;-68
2021/01/16 06:58:38;;;;;;;19.23;10.02;;;;;;;;;;6210517;28;20499;-68
2021/01/16 07:01:40;;;;;;;21.13;10.52;;;;;;;;;;6211134;28;20053;-68
2021/01/16 07:04:51;;;;;;;19.65;10.27;;;;;;;;;;6209797;28;20062;-68
2021/01/16 07:07:52;;;;;;;23.40;11.07;;;;;;;;;;6208932;28;20069;-68
2021/01/16 07:10:55;;;;;;;18.60;11.32;;;;;;;;;;6211839;28;20077;-69
2021/01/16 07:13:59;;;;;;;18.10;10.43;;;;;;;;;;6214093;28;20374;-67
2021/01/16 07:17:00;;;;;;;16.15;10.32;;;;;;;;;;6211357;28;20042;-67
2021/01/16 07:20:03;;;;;;;20.45;11.63;;;;;;;;;;6211724;28;20141;-68
2021/01/16 07:23:04;;;;;;;18.77;10.43;;;;;;;;;;6208469;28;20129;-69
2021/01/16 07:26:05;;;;;;;19.45;10.90;;;;;;;;;;6212059;28;20777;-69
2021/01/16 07:29:08;;;;;;;21.13;10.45;;;;;;;;;;6211695;28;20520;-69
2021/01/16 07:32:16;;;;;;;22.25;11.02;;;;;;;;;;6213199;28;20054;-69
2021/01/16 07:35:19;;;;;;;21.48;10.38;;;;;;;;;;6209613;28;20149;-69
2021/01/16 07:38:20;;;;;;;19.75;11.07;;;;;;;;;;6207941;28;20059;-69
2021/01/16 07:41:21;;;;;;;17.38;10.98;;;;;;;;;;6211061;28;20049;-70
2021/01/16 07:44:32;;;;;;;19.85;10.30;;;;;;;;;;6209180;28;20054;-69
2021/01/16 07:47:39;;;;;;;15.05;10.25;;;;;;;;;;6206898;28;20037;-69
2021/01/16 07:50:42;;;;;;;23.33;11.35;;;;;;;;;;6205785;28;20537;-70
2021/01/16 07:53:43;;;;;;;17.37;9.50;;;;;;;;;;6205373;28;20053;-69
2021/01/16 07:56:45;;;;;;;16.15;9.88;;;;;;;;;;6208693;28;20521;-69
2021/01/16 07:59:53;;;;;;;19.83;10.30;;;;;;;;;;6209884;28;20129;-69
2021/01/16 08:03:17;;;;;;;19.33;10.68;;;;;;;;;;5516186;28;10000748;-70
2021/01/16 08:06:25;;;;;;;17.38;9.90;;;;;;;;;;6208741;28;20044;-71
2021/01/16 08:09:47;;;;;;;19.63;10.00;;;;;;;;;;6211964;28;20103;-69
2021/01/16 08:12:51;;;;;;;20.77;10.02;;;;;;;;;;6208935;28;20058;-69
2021/01/16 08:15:53;;;;;;;18.17;10.10;;;;;;;;;;6211723;28;20133;-69
2021/01/16 08:19:13;;;;;;;17.92;10.35;;;;;;;;;;6205490;28;20073;-67
2021/01/16 08:22:16;;;;;;;14.25;10.27;;;;;;;;;;6210717;28;20124;-67
2021/01/16 08:25:21;;;;;;;16.42;11.20;;;;;;;;;;6205224;28;20068;-67
2021/01/16 08:28:27;;;;;;;18.98;9.75;;;;;;;;;;6201536;28;20058;-68
2021/01/16 08:31:29;;;;;;;21.02;9.95;;;;;;;;;;6206031;28;20061;-67
2021/01/16 08:34:51;;;;;;;16.50;11.05;;;;;;;;;;6204404;28;20046;-67
2021/01/16 08:37:53;;;;;;;17.77;11.75;;;;;;;;;;6203736;28;20639;-69
2021/01/16 08:41:03;;;;;;;22.80;12.80;;;;;;;;;;6205487;28;20461;-69
2021/01/16 08:44:04;;;;;;;21.60;13.30;;;;;;;;;;6195595;28;20042;-68
2021/01/16 08:47:07;;;;;;;21.73;13.43;;;;;;;;;;6208355;28;20767;-67
2021/01/16 08:50:13;;;;;;;21.90;12.40;;;;;;;;;;6208161;28;20157;-68
2021/01/16 08:53:21;;;;;;;20.75;12.45;;;;;;;;;;6204773;28;20046;-67
2021/01/16 08:56:23;;;;;;;24.98;12.95;;;;;;;;;;6203710;28;20100;-67
2021/01/16 08:59:28;;;;;;;21.02;12.23;;;;;;;;;;6207861;28;20064;-66
2021/01/16 09:02:29;;;;;;;24.65;14.30;;;;;;;;;;6207207;28;20688;-67
2021/01/16 09:05:32;;;;;;;22.45;11.98;;;;;;;;;;6209655;28;20153;-67
2021/01/16 09:08:33;;;;;;;17.90;11.55;;;;;;;;;;6213995;28;20060;-68
2021/01/16 09:11:34;;;;;;;25.60;12.77;;;;;;;;;;6208110;28;20075;-68
2021/01/16 09:14:36;;;;;;;25.77;12.95;;;;;;;;;;6206017;28;20042;-70
2021/01/16 09:17:38;;;;;;;19.45;13.55;;;;;;;;;;6200569;28;20056;-67
2021/01/16 09:20:40;;;;;;;28.20;14.50;;;;;;;;;;6207343;28;20850;-70
2021/01/16 09:23:42;;;;;;;21.88;13.70;;;;;;;;;;6209456;28;20099;-69
2021/01/16 09:26:43;;;;;;;20.33;13.68;;;;;;;;;;6209855;28;20104;-70
2021/01/16 09:29:44;;;;;;;23.92;13.35;;;;;;;;;;6213697;28;20505;-70
2021/01/16 09:32:45;;;;;;;23.20;13.02;;;;;;;;;;6203275;28;20050;-69
2021/01/16 09:35:46;;;;;;;19.02;12.32;;;;;;;;;;6207103;28;20489;-69
2021/01/16 09:38:48;;;;;;;19.13;12.20;;;;;;;;;;6213584;28;20054;-69
2021/01/16 09:41:52;;;;;;;19.42;13.07;;;;;;;;;;6214974;28;20056;-69
2021/01/16 09:44:54;;;;;;;19.25;11.88;;;;;;;;;;6210867;28;20046;-69
2021/01/16 09:47:55;;;;;;;21.05;12.77;;;;;;;;;;6204255;28;20054;-69
2021/01/16 09:50:57;;;;;;;21.67;12.63;;;;;;;;;;6206777;28;20054;-67
2021/01/16 09:54:09;;;;;;;24.60;12.88;;;;;;;;;;6206862;28;20449;-67
2021/01/16 09:57:10;;;;;;;20.80;13.00;;;;;;;;;;6205673;28;20092;-67
2021/01/16 10:00:13;;;;;;;22.30;13.68;;;;;;;;;;6212821;28;20058;-68
2021/01/16 10:03:15;;;;;;;22.77;12.57;;;;;;;;;;6207913;28;20057;-69
2021/01/16 10:06:18;;;;;;;19.58;13.23;;;;;;;;;;6212904;28;20847;-69
2021/01/16 10:09:21;;;;;;;20.88;13.27;;;;;;;;;;6206366;28;20045;-69
2021/01/16 10:12:42;;;;;;;22.60;12.60;;;;;;;;;;6206518;28;20056;-68
2021/01/16 10:15:48;;;;;;;19.48;12.32;;;;;;;;;;6208786;28;20508;-68
2021/01/16 10:18:59;;;;;;;16.17;11.70;;;;;;;;;;6209272;28;20060;-69
2021/01/16 10:22:02;;;;;;;16.25;12.23;;;;;;;;;;6176302;28;20766;-69
2021/01/16 10:25:13;;;;;;;16.42;11.20;;;;;;;;;;6209729;28;20141;-68
2021/01/16 10:28:25;;;;;;;19.45;11.18;;;;;;;;;;6208384;28;20176;-68
2021/01/16 10:31:29;;;;;;;18.48;12.57;;;;;;;;;;6207189;28;20058;-68
2021/01/16 10:34:30;;;;;;;18.10;11.97;;;;;;;;;;6205863;28;20065;-69
2021/01/16 10:37:40;;;;;;;16.42;10.85;;;;;;;;;;6210740;28;20042;-68
2021/01/16 10:40:50;;;;;;;15.38;9.95;;;;;;;;;;5862346;28;10000269;-68
2021/01/16 10:43:59;;;;;;;16.17;10.82;;;;;;;;;;6210491;28;20073;-68
2021/01/16 10:47:03;;;;;;;14.88;9.63;;;;;;;;;;6212815;28;20044;-68
2021/01/16 10:50:05;;;;;;;;;;;;;;;;;;6208305;28;20054;-68
2021/01/16 10:53:08;;;;;;;15.70;11.23;;;;;;;;;;6210923;28;19921;-69
2021/01/16 10:56:14;;;;;;;14.95;10.43;;;;;;;;;;6207589;28;20131;-66
2021/01/16 10:59:15;;;;;;;15.90;11.10;;;;;;;;;;6214207;28;20465;-67
2021/01/16 11:02:17;;;;;;;15.95;10.95;;;;;;;;;;6216114;28;20618;-68
2021/01/16 11:05:25;;;;;;;15.57;10.52;;;;;;;;;;6206744;28;20053;-68
2021/01/16 11:08:28;;;;;;;18.42;10.85;;;;;;;;;;6212436;28;20581;-69
2021/01/16 11:11:30;;;;;;;14.55;10.48;;;;;;;;;;6212390;28;20056;-69
2021/01/16 11:14:32;;;;;;;15.85;11.07;;;;;;;;;;6212046;28;20061;-68
2021/01/16 11:17:52;;;;;;;19.17;12.15;;;;;;;;;;6209147;28;20542;-67
2021/01/16 11:20:59;;;;;;;16.38;10.80;;;;;;;;;;6210164;28;20077;-70
2021/01/16 11:24:42;;;;;;;13.57;10.70;;;;;;;;;;6209951;28;20111;-67
2021/01/16 11:28:05;;;;;;;16.77;11.32;;;;;;;;;;6211244;28;20440;-67
2021/01/16 11:31:08;;;;;;;13.63;10.77;;;;;;;;;;6210847;28;20087;-69
2021/01/16 11:34:21;;;;;;;14.93;10.63;;;;;;;;;;6210917;28;20080;-71
2021/01/16 11:37:43;;;;;;;17.87;11.43;;;;;;;;;;6210000;28;20050;-68
2021/01/16 11:40:46;;;;;;;14.70;11.00;;;;;;;;;;6204817;28;20129;-68
2021/01/16 11:43:56;;;;;;;20.13;11.80;;;;;;;;;;6202447;28;20064;-67
2021/01/16 11:47:01;;;;;;;16.23;10.13;;;;;;;;;;6209555;28;20133;-67
2021/01/16 11:50:06;;;;;;;15.77;10.50;;;;;;;;;;6177082;28;20038;-70
2021/01/16 11:53:07;;;;;;;15.45;10.20;;;;;;;;;;6205943;28;20118;-67
2021/01/16 11:56:08;;;;;;;15.02;10.13;;;;;;;;;;6208670;28;20045;-69
2021/01/16 11:59:10;;;;;;;16.20;10.75;;;;;;;;;;6201262;28;20468;-65
2021/01/16 12:02:12;;;;;;;42.92;25.23;;;;;;;;;;6205771;28;20046;-68
2021/01/16 12:05:15;;;;;;;17.25;9.88;;;;;;;;;;6203899;28;20057;-66
2021/01/16 12:08:16;;;;;;;13.27;9.70;;;;;;;;;;6205018;28;20068;-65
2021/01/16 12:11:17;;;;;;;13.57;9.48;;;;;;;;;;6205146;28;20065;-65
2021/01/16 12:14:19;;;;;;;16.38;9.13;;;;;;;;;;6208543;28;20062;-65
2021/01/16 12:17:21;;;;;;;13.02;9.35;;;;;;;;;;6203667;28;20132;-68
2021/01/16 12:20:24;;;;;;;13.43;9.50;;;;;;;;;;6204727;28;20076;-67
2021/01/16 12:23:35;;;;;;;12.73;9.48;;;;;;;;;;5860669;28;10000139;-66
2021/01/16 12:26:37;;;;;;;11.75;9.10;;;;;;;;;;6206625;28;20133;-69
2021/01/16 12:29:41;;;;;;;12.38;9.52;;;;;;;;;;6211764;28;20095;-66
2021/01/16 12:32:42;;;;;;;11.65;8.90;;;;;;;;;;6213918;28;20119;-66
2021/01/16 12:35:43;;;;;;;12.95;9.40;;;;;;;;;;6213633;28;20046;-70
2021/01/16 12:38:49;;;;;;;12.20;8.85;;;;;;;;;;6217260;28;20058;-68
2021/01/16 12:41:50;;;;;;;12.90;9.38;;;;;;;;;;6212292;28;20053;-67
2021/01/16 12:44:52;;;;;;;11.32;9.15;;;;;;;;;;6215465;28;20741;-68
2021/01/16 12:47:55;;;;;;;10.55;8.65;;;;;;;;;;6215982;28;20046;-67
2021/01/16 12:50:57;;;;;;;10.40;8.73;;;;;;;;;;6210084;28;20046;-68
2021/01/16 12:53:58;;;;;;;12.90;9.10;;;;;;;;;;6211971;28;20521;-71
2021/01/16 12:56:59;;;;;;;12.75;8.65;;;;;;;;;;6218441;28;20058;-69
2021/01/16 13:00:01;;;;;;;12.00;8.95;;;;;;;;;;6213121;28;20108;-68
2021/01/16 13:03:04;;;;;;;11.60;8.95;;;;;;;;;;6212481;28;20113;-70
2021/01/16 13:06:06;;;;;;;14.80;9.20;;;;;;;;;;6213895;28;20054;-67
2021/01/16 13:09:08;;;;;;;13.15;9.05;;;;;;;;;;6213811;28;20060;-67
2021/01/16 13:12:09;;;;;;;13.23;8.98;;;;;;;;;;6212441;28;20079;-67
2021/01/16 13:15:12;;;;;;;11.98;9.23;;;;;;;;;;6212846;28;20038;-69
2021/01/16 13:18:15;;;;;;;12.88;9.48;;;;;;;;;;6213233;28;20546;-70
2021/01/16 13:21:27;;;;;;;12.43;9.90;;;;;;;;;;6213745;28;20052;-72
2021/01/16 13:24:28;;;;;;;13.57;9.27;;;;;;;;;;6212055;28;20073;-68
2021/01/16 13:27:30;;;;;;;12.13;9.15;;;;;;;;;;6211658;28;20050;-68
2021/01/16 13:30:32;;;;;;;13.77;10.00;;;;;;;;;;6209089;28;20574;-67
2021/01/16 13:33:34;;;;;;;12.10;10.05;;;;;;;;;;6212320;28;20108;-68
2021/01/16 13:36:36;;;;;;;14.23;10.30;;;;;;;;;;6214306;28;20432;-68
2021/01/16 13:39:37;;;;;;;13.77;9.65;;;;;;;;;;6211924;28;20432;-76
2021/01/16 13:42:41;;;;;;;12.70;9.50;;;;;;;;;;6205561;28;20123;-68
2021/01/16 13:45:52;;;;;;;13.82;9.40;;;;;;;;;;6208433;28;20070;-67
2021/01/16 13:48:54;;;;;;;14.27;9.52;;;;;;;;;;6214161;28;20050;-68
2021/01/16 13:52:04;;;;;;;13.93;10.43;;;;;;;;;;6215539;28;20173;-67
2021/01/16 13:55:14;;;;;;;14.02;9.27;;;;;;;;;;6215623;28;20077;-67
2021/01/16 13:58:15;;;;;;;15.38;9.40;;;;;;;;;;6222280;28;20046;-66
2021/01/16 14:01:37;;;;;;;12.30;7.90;;;;;;;;;;6214857;28;20137;-68
2021/01/16 14:04:40;;;;;;;17.98;8.95;;;;;;;;;;6214106;28;20445;-68
2021/01/16 14:07:41;;;;;;;11.63;8.52;;;;;;;;;;6214315;28;20140;-66
2021/01/16 14:10:47;;;;;;;10.15;7.88;;;;;;;;;;6216945;28;20086;-69
2021/01/16 14:13:48;;;;;;;9.50;7.65;;;;;;;;;;6210367;28;20064;-71
2021/01/16 14:16:50;;;;;;;13.18;8.80;;;;;;;;;;6212439;28;20053;-67
2021/01/16 14:19:57;;;;;;;13.52;8.23;;;;;;;;;;6214719;28;20053;-66
2021/01/16 14:22:58;;;;;;;11.10;8.13;;;;;;;;;;6212964;28;20054;-68
2021/01/16 14:26:15;;;;;;;10.55;7.97;;;;;;;;;;6207900;28;20081;-68
2021/01/16 14:29:16;;;;;;;13.68;8.85;;;;;;;;;;6211219;28;20084;-68
2021/01/16 14:32:26;;;;;;;10.15;7.65;;;;;;;;;;6212406;28;20426;-67
2021/01/16 14:35:28;;;;;;;10.95;8.48;;;;;;;;;;6207489;28;20045;-67
2021/01/16 14:38:29;;;;;;;10.30;7.45;;;;;;;;;;6214161;28;20054;-66
2021/01/16 14:41:38;;;;;;;12.18;8.23;;;;;;;;;;6206271;28;20056;-71
2021/01/16 14:44:39;;;;;;;13.20;7.80;;;;;;;;;;5855922;28;10000531;-69
2021/01/16 14:47:41;;;;;;;11.57;8.40;;;;;;;;;;6201715;28;20053;-68
2021/01/16 14:50:43;;;;;;;11.68;7.80;;;;;;;;;;6205921;28;20107;-68
2021/01/16 14:53:44;;;;;;;10.82;8.35;;;;;;;;;;6203702;28;20077;-68
2021/01/16 14:56:47;;;;;;;11.13;8.13;;;;;;;;;;6209940;28;20050;-67
2021/01/16 14:59:48;;;;;;;12.23;9.57;;;;;;;;;;6198322;28;20098;-70
2021/01/16 15:02:57;;;;;;;13.73;9.57;;;;;;;;;;6198274;28;20072;-67
2021/01/16 15:05:59;;;;;;;11.90;9.43;;;;;;;;;;6194846;28;20468;-68
2021/01/16 15:09:01;;;;;;;17.10;9.63;;;;;;;;;;6201199;28;21073;-71
2021/01/16 15:12:04;;;;;;;11.95;9.10;;;;;;;;;;6199042;28;20179;-68
2021/01/16 15:15:07;;;;;;;13.25;9.85;;;;;;;;;;6205178;28;20137;-71
2021/01/16 15:18:09;;;;;;;12.13;10.10;;;;;;;;;;6202599;28;20384;-68
2021/01/16 15:21:10;;;;;;;14.20;9.77;;;;;;;;;;6208131;28;20100;-67
2021/01/16 15:24:11;;;;;;;16.05;9.15;;;;;;;;;;6203077;28;20803;-68
2021/01/16 15:27:13;;;;;;;14.32;9.38;;;;;;;;;;6204613;28;20248;-67
2021/01/16 15:30:15;;;;;;;14.63;10.80;;;;;;;;;;6199082;28;20079;-69
2021/01/16 15:33:17;;;;;;;14.02;9.88;;;;;;;;;;6198807;28;20848;-68
2021/01/16 15:36:19;;;;;;;12.63;9.05;;;;;;;;;;6200322;28;20208;-69
2021/01/16 15:39:20;;;;;;;12.48;9.48;;;;;;;;;;6197408;28;20063;-68
2021/01/16 15:42:23;;;;;;;13.35;9.80;;;;;;;;;;6204322;28;20033;-69
2021/01/16 15:45:24;;;;;;;15.70;10.10;;;;;;;;;;6200022;28;20061;-71
2021/01/16 15:48:26;;;;;;;17.02;9.88;;;;;;;;;;6204550;28;20635;-69
2021/01/16 15:51:28;;;;;;;15.65;10.00;;;;;;;;;;6199243;28;20275;-71
2021/01/16 15:54:29;;;;;;;17.35;9.98;;;;;;;;;;6207198;28;20124;-70
2021/01/16 15:57:31;;;;;;;16.17;9.85;;;;;;;;;;6204214;28;20382;-70
2021/01/16 16:00:37;;;;;;;15.07;10.88;;;;;;;;;;6202751;28;20092;-70
2021/01/16 16:03:42;;;;;;;14.23;10.00;;;;;;;;;;6208771;28;20129;-68
2021/01/16 16:06:44;;;;;;;20.30;12.40;;;;;;;;;;6210729;28;20123;-69
2021/01/16 16:09:45;;;;;;;14.05;10.90;;;;;;;;;;6205516;28;20056;-68
2021/01/16 16:12:55;;;;;;;16.58;11.05;;;;;;;;;;6205292;28;20145;-68
2021/01/16 16:15:56;;;;;;;14.95;10.50;;;;;;;;;;6205193;28;20191;-71
2021/01/16 16:18:58;;;;;;;16.42;10.27;;;;;;;;;;6205895;28;20056;-68
2021/01/16 16:21:59;;;;;;;15.10;11.75;;;;;;;;;;6205778;28;20050;-70
2021/01/16 16:25:00;;;;;;;16.23;10.43;;;;;;;;;;6208142;28;20050;-68
2021/01/16 16:28:01;;;;;;;16.80;10.13;;;;;;;;;;6208172;28;20775;-70
2021/01/16 16:31:03;;;;;;;16.20;10.38;;;;;;;;;;6208027;28;21670;-70
2021/01/16 16:34:05;;;;;;;19.70;11.02;;;;;;;;;;6206096;28;20046;-67
2021/01/16 16:37:06;;;;;;;14.95;10.50;;;;;;;;;;6202024;28;20128;-68
2021/01/16 16:40:08;;;;;;;13.50;9.57;;;;;;;;;;6206078;28;20061;-71
2021/01/16 16:43:11;;;;;;;16.05;9.25;;;;;;;;;;6208599;28;20049;-68
2021/01/16 16:46:12;;;;;;;13.27;9.48;;;;;;;;;;6206324;28;20068;-67
2021/01/16 16:49:14;;;;;;;15.88;9.57;;;;;;;;;;6207621;28;20054;-67
2021/01/16 16:52:15;;;;;;;19.27;10.98;;;;;;;;;;6208410;28;20144;-67
2021/01/16 16:55:16;;;;;;;14.32;10.07;;;;;;;;;;6207980;28;20080;-68
2021/01/16 16:58:20;;;;;;;16.00;10.02;;;;;;;;;;6206725;28;20038;-67
2021/01/16 17:01:21;;;;;;;16.58;10.93;;;;;;;;;;6204123;28;20480;-66
2021/01/16 17:04:23;;;;;;;15.30;10.82;;;;;;;;;;6207730;28;20054;-67
2021/01/16 17:07:24;;;;;;;16.25;10.25;;;;;;;;;;6206873;28;20123;-69
2021/01/16 17:10:27;;;;;;;18.70;11.50;;;;;;;;;;6206861;28;20551;-69
2021/01/16 17:13:28;;;;;;;16.40;10.95;;;;;;;;;;6207018;28;20129;-69
2021/01/16 17:16:29;;;;;;;16.88;11.68;;;;;;;;;;6205285;28;20188;-70
2021/01/16 17:19:31;;;;;;;19.15;12.02;;;;;;;;;;6211161;28;20393;-68
2021/01/16 17:22:32;;;;;;;18.02;11.75;;;;;;;;;;6212673;28;20137;-70
2021/01/16 17:25:33;;;;;;;16.92;11.27;;;;;;;;;;6207273;28;20046;-69
2021/01/16 17:28:35;;;;;;;16.75;11.70;;;;;;;;;;6210959;28;20085;-70
2021/01/16 17:31:39;;;;;;;16.60;12.40;;;;;;;;;;6208338;28;20042;-69
2021/01/16 17:34:42;;;;;;;17.83;11.82;;;;;;;;;;6212929;28;20045;-69
2021/01/16 17:37:43;;;;;;;18.52;11.63;;;;;;;;;;6217927;28;20050;-70
2021/01/16 17:40:44;;;;;;;18.73;12.80;;;;;;;;;;6211378;28;20624;-68
2021/01/16 17:43:46;;;;;;;20.83;12.75;;;;;;;;;;6210021;28;20053;-67
2021/01/16 17:46:47;;;;;;;18.30;12.05;;;;;;;;;;6210986;28;20080;-67
2021/01/16 17:49:49;;;;;;;18.63;12.15;;;;;;;;;;6214252;28;20045;-67
2021/01/16 17:52:50;;;;;;;15.27;10.52;;;;;;;;;;6209062;28;20038;-69
2021/01/16 17:55:52;;;;;;;17.58;11.50;;;;;;;;;;6214047;28;20045;-68